sensor_id;sensor_type;location;lat;lon;timestamp;pressure;altitude;pressure_sealevel;temperature;humidity
41254;BME280;26987;59.928;30.306;2023-06-10T00:00:50;102463.16;;;8.36;60.96
41254;BME280;26987;59.928;30.306;2023-06-10T00:03:19;102464.13;;;8.35;61.10
41254;BME280;26987;59.928;30.306;2023-06-10T00:05:49;102461.91;;;8.30;61.35
41254;BME280;26987;59.928;30.306;2023-06-10T00:08:17;102447.31;;;8.24;61.42
41254;BME280;26987;59.928;30.306;2023-06-10T00:10:45;102458.00;;;8.24;61.59
41254;BME280;26987;59.928;30.306;2023-06-10T00:13:13;102464.19;;;8.25;61.67
41254;BME280;26987;59.928;30.306;2023-06-10T00:15:42;102467.00;;;8.23;61.85
41254;BME280;26987;59.928;30.306;2023-06-10T00:18:11;102475.19;;;8.22;62.32
41254;BME280;26987;59.928;30.306;2023-06-10T00:20:40;102444.88;;;8.03;62.52
41254;BME280;26987;59.928;30.306;2023-06-10T00:23:08;102477.28;;;8.18;62.53
41254;BME280;26987;59.928;30.306;2023-06-10T00:25:36;102462.31;;;8.07;62.33
41254;BME280;26987;59.928;30.306;2023-06-10T00:28:04;102465.28;;;8.04;62.71
41254;BME280;26987;59.928;30.306;2023-06-10T00:30:32;102480.03;;;8.08;62.86
41254;BME280;26987;59.928;30.306;2023-06-10T00:33:00;102482.13;;;8.04;63.25
41254;BME280;26987;59.928;30.306;2023-06-10T00:35:27;102478.94;;;8.01;63.56
41254;BME280;26987;59.928;30.306;2023-06-10T00:37:57;102489.19;;;7.95;64.54
41254;BME280;26987;59.928;30.306;2023-06-10T00:40:25;102496.25;;;7.97;64.21
41254;BME280;26987;59.928;30.306;2023-06-10T00:42:52;102491.72;;;7.97;64.06
41254;BME280;26987;59.928;30.306;2023-06-10T00:45:21;102444.75;;;7.66;64.08
41254;BME280;26987;59.928;30.306;2023-06-10T00:47:49;102471.09;;;7.89;64.10
41254;BME280;26987;59.928;30.306;2023-06-10T00:50:18;102503.13;;;7.99;64.06
41254;BME280;26987;59.928;30.306;2023-06-10T00:52:46;102505.22;;;7.95;64.69
41254;BME280;26987;59.928;30.306;2023-06-10T00:55:16;102500.94;;;7.85;64.45
41254;BME280;26987;59.928;30.306;2023-06-10T00:57:45;102505.13;;;7.87;64.92
41254;BME280;26987;59.928;30.306;2023-06-10T01:00:15;102503.59;;;7.85;65.06
41254;BME280;26987;59.928;30.306;2023-06-10T01:02:43;102515.09;;;7.85;65.55
41254;BME280;26987;59.928;30.306;2023-06-10T01:05:11;102509.09;;;7.83;65.58
41254;BME280;26987;59.928;30.306;2023-06-10T01:07:43;102504.31;;;7.77;65.39
41254;BME280;26987;59.928;30.306;2023-06-10T01:10:20;102525.09;;;7.83;66.11
41254;BME280;26987;59.928;30.306;2023-06-10T01:12:57;102518.06;;;7.82;66.58
41254;BME280;26987;59.928;30.306;2023-06-10T01:15:30;102523.97;;;7.76;66.76
41254;BME280;26987;59.928;30.306;2023-06-10T01:17:59;102522.88;;;7.78;66.65
41254;BME280;26987;59.928;30.306;2023-06-10T01:20:31;102480.47;;;7.45;66.58
41254;BME280;26987;59.928;30.306;2023-06-10T01:23:01;102529.59;;;7.73;67.21
41254;BME280;26987;59.928;30.306;2023-06-10T01:25:30;102526.13;;;7.72;67.34
41254;BME280;26987;59.928;30.306;2023-06-10T01:28:02;102533.69;;;7.77;67.32
41254;BME280;26987;59.928;30.306;2023-06-10T01:30:38;102532.13;;;7.74;67.49
41254;BME280;26987;59.928;30.306;2023-06-10T01:33:09;102532.03;;;7.66;67.82
41254;BME280;26987;59.928;30.306;2023-06-10T01:35:42;102534.25;;;7.70;68.28
41254;BME280;26987;59.928;30.306;2023-06-10T01:38:12;102542.28;;;7.70;67.84
41254;BME280;26987;59.928;30.306;2023-06-10T01:40:42;102534.94;;;7.73;67.65
41254;BME280;26987;59.928;30.306;2023-06-10T01:43:10;102532.44;;;7.71;67.95
41254;BME280;26987;59.928;30.306;2023-06-10T01:45:39;102534.25;;;7.70;68.33
41254;BME280;26987;59.928;30.306;2023-06-10T01:48:08;102528.22;;;7.68;68.11
41254;BME280;26987;59.928;30.306;2023-06-10T01:50:36;102547.28;;;7.83;67.70
41254;BME280;26987;59.928;30.306;2023-06-10T01:53:04;102541.53;;;7.88;68.18
41254;BME280;26987;59.928;30.306;2023-06-10T01:55:34;102551.44;;;8.06;67.31
41254;BME280;26987;59.928;30.306;2023-06-10T01:58:02;102553.38;;;8.24;67.24
41254;BME280;26987;59.928;30.306;2023-06-10T02:00:29;102561.94;;;8.65;65.88
41254;BME280;26987;59.928;30.306;2023-06-10T02:02:57;102566.81;;;9.16;63.47
41254;BME280;26987;59.928;30.306;2023-06-10T02:05:25;102576.22;;;9.57;62.35
41254;BME280;26987;59.928;30.306;2023-06-10T02:07:53;102572.38;;;9.59;61.64
41254;BME280;26987;59.928;30.306;2023-06-10T02:10:22;102571.16;;;9.54;61.74
41254;BME280;26987;59.928;30.306;2023-06-10T02:12:51;102571.63;;;9.49;62.11
41254;BME280;26987;59.928;30.306;2023-06-10T02:15:19;102555.38;;;9.69;60.85
41254;BME280;26987;59.928;30.306;2023-06-10T02:17:47;102575.00;;;10.22;59.41
41254;BME280;26987;59.928;30.306;2023-06-10T02:20:15;102577.59;;;10.84;57.95
41254;BME280;26987;59.928;30.306;2023-06-10T02:22:43;102571.63;;;11.23;55.31
41254;BME280;26987;59.928;30.306;2023-06-10T02:25:11;102586.06;;;11.89;53.78
41254;BME280;26987;59.928;30.306;2023-06-10T02:27:39;102592.59;;;12.60;51.32
41254;BME280;26987;59.928;30.306;2023-06-10T02:30:09;102591.50;;;13.09;49.71
41254;BME280;26987;59.928;30.306;2023-06-10T02:32:37;102596.00;;;13.64;47.90
41254;BME280;26987;59.928;30.306;2023-06-10T02:35:06;102596.81;;;14.18;46.54
41254;BME280;26987;59.928;30.306;2023-06-10T02:37:34;102602.09;;;14.42;45.69
41254;BME280;26987;59.928;30.306;2023-06-10T02:40:02;102606.84;;;14.55;44.63
41254;BME280;26987;59.928;30.306;2023-06-10T02:42:32;102594.09;;;14.79;44.20
41254;BME280;26987;59.928;30.306;2023-06-10T02:45:01;102606.84;;;15.07;43.63
41254;BME280;26987;59.928;30.306;2023-06-10T02:47:38;102600.25;;;15.31;43.19
41254;BME280;26987;59.928;30.306;2023-06-10T02:50:08;102608.50;;;15.51;42.76
41254;BME280;26987;59.928;30.306;2023-06-10T02:52:43;102587.00;;;15.65;41.81
41254;BME280;26987;59.928;30.306;2023-06-10T02:55:12;102625.13;;;16.27;40.99
41254;BME280;26987;59.928;30.306;2023-06-10T02:57:44;102628.03;;;16.75;40.14
41254;BME280;26987;59.928;30.306;2023-06-10T03:00:13;102633.09;;;16.92;39.72
41254;BME280;26987;59.928;30.306;2023-06-10T03:02:44;102634.94;;;17.47;38.88
41254;BME280;26987;59.928;30.306;2023-06-10T03:05:14;102634.09;;;17.73;37.84
41254;BME280;26987;59.928;30.306;2023-06-10T03:07:47;102639.53;;;17.73;37.90
41254;BME280;26987;59.928;30.306;2023-06-10T03:10:16;102640.97;;;17.49;38.74
41254;BME280;26987;59.928;30.306;2023-06-10T03:12:44;102649.50;;;17.25;39.07
41254;BME280;26987;59.928;30.306;2023-06-10T03:15:12;102642.19;;;17.33;38.98
41254;BME280;26987;59.928;30.306;2023-06-10T03:17:43;102650.16;;;17.88;38.12
41254;BME280;26987;59.928;30.306;2023-06-10T03:20:12;102635.72;;;17.20;38.91
41254;BME280;26987;59.928;30.306;2023-06-10T03:22:45;102651.59;;;17.37;38.94
41254;BME280;26987;59.928;30.306;2023-06-10T03:25:13;102656.22;;;17.90;38.34
41254;BME280;26987;59.928;30.306;2023-06-10T03:27:43;102662.72;;;18.69;36.90
41254;BME280;26987;59.928;30.306;2023-06-10T03:30:13;102660.13;;;18.35;37.28
41254;BME280;26987;59.928;30.306;2023-06-10T03:32:44;102663.94;;;18.80;37.05
41254;BME280;26987;59.928;30.306;2023-06-10T03:35:15;102663.38;;;19.17;36.20
41254;BME280;26987;59.928;30.306;2023-06-10T03:37:44;102656.31;;;19.09;36.18
41254;BME280;26987;59.928;30.306;2023-06-10T03:40:12;102660.94;;;19.92;35.36
41254;BME280;26987;59.928;30.306;2023-06-10T03:42:43;102658.22;;;21.04;33.65
41254;BME280;26987;59.928;30.306;2023-06-10T03:45:14;102668.84;;;21.79;32.01
41254;BME280;26987;59.928;30.306;2023-06-10T03:47:43;102666.25;;;21.97;31.78
41254;BME280;26987;59.928;30.306;2023-06-10T03:50:14;102674.31;;;21.91;31.86
41254;BME280;26987;59.928;30.306;2023-06-10T03:52:44;102650.84;;;21.48;31.88
41254;BME280;26987;59.928;30.306;2023-06-10T03:55:14;102684.13;;;21.57;32.19
41254;BME280;26987;59.928;30.306;2023-06-10T03:57:45;102674.34;;;21.06;32.60
41254;BME280;26987;59.928;30.306;2023-06-10T04:00:14;102679.13;;;21.11;32.77
41254;BME280;26987;59.928;30.306;2023-06-10T04:02:42;102672.22;;;20.40;33.63
41254;BME280;26987;59.928;30.306;2023-06-10T04:05:19;102681.75;;;19.79;34.85
41254;BME280;26987;59.928;30.306;2023-06-10T04:07:49;102673.00;;;19.77;35.07
41254;BME280;26987;59.928;30.306;2023-06-10T04:10:18;102672.59;;;20.44;34.08
41254;BME280;26987;59.928;30.306;2023-06-10T04:12:45;102684.31;;;20.44;33.87
41254;BME280;26987;59.928;30.306;2023-06-10T04:15:14;102679.31;;;20.41;33.76
41254;BME280;26987;59.928;30.306;2023-06-10T04:17:42;102689.00;;;20.74;33.35
41254;BME280;26987;59.928;30.306;2023-06-10T04:20:11;102694.47;;;20.93;32.83
41254;BME280;26987;59.928;30.306;2023-06-10T04:22:44;102697.53;;;21.58;32.38
41254;BME280;26987;59.928;30.306;2023-06-10T04:25:12;102693.69;;;21.47;31.67
41254;BME280;26987;59.928;30.306;2023-06-10T04:27:41;102689.91;;;21.48;31.89
41254;BME280;26987;59.928;30.306;2023-06-10T04:30:11;102695.13;;;21.50;31.57
41254;BME280;26987;59.928;30.306;2023-06-10T04:32:41;102687.47;;;20.97;32.22
41254;BME280;26987;59.928;30.306;2023-06-10T04:35:15;102694.31;;;20.69;32.97
41254;BME280;26987;59.928;30.306;2023-06-10T04:37:46;102697.09;;;21.73;31.60
41254;BME280;26987;59.928;30.306;2023-06-10T04:40:14;102695.34;;;21.91;30.99
41254;BME280;26987;59.928;30.306;2023-06-10T04:42:43;102695.88;;;21.69;31.11
41254;BME280;26987;59.928;30.306;2023-06-10T04:45:11;102693.91;;;21.88;30.84
41254;BME280;26987;59.928;30.306;2023-06-10T04:47:39;102699.94;;;21.78;31.06
41254;BME280;26987;59.928;30.306;2023-06-10T04:50:08;102709.47;;;21.88;30.71
41254;BME280;26987;59.928;30.306;2023-06-10T04:52:36;102705.34;;;21.54;31.08
41254;BME280;26987;59.928;30.306;2023-06-10T04:55:08;102702.69;;;21.48;31.03
41254;BME280;26987;59.928;30.306;2023-06-10T04:57:37;102700.38;;;21.63;30.38
41254;BME280;26987;59.928;30.306;2023-06-10T05:00:06;102710.59;;;21.68;30.10
41254;BME280;26987;59.928;30.306;2023-06-10T05:02:34;102704.63;;;21.47;30.11
41254;BME280;26987;59.928;30.306;2023-06-10T05:05:02;102708.88;;;21.98;28.97
41254;BME280;26987;59.928;30.306;2023-06-10T05:07:30;102715.25;;;22.63;28.41
41254;BME280;26987;59.928;30.306;2023-06-10T05:09:58;102713.47;;;22.69;27.91
41254;BME280;26987;59.928;30.306;2023-06-10T05:12:27;102728.81;;;21.86;29.17
41254;BME280;26987;59.928;30.306;2023-06-10T05:14:55;102698.06;;;22.15;28.78
41254;BME280;26987;59.928;30.306;2023-06-10T05:17:23;102721.88;;;22.79;27.75
41254;BME280;26987;59.928;30.306;2023-06-10T05:19:51;102717.72;;;23.06;27.78
41254;BME280;26987;59.928;30.306;2023-06-10T05:22:19;102730.22;;;23.43;27.07
41254;BME280;26987;59.928;30.306;2023-06-10T05:24:47;102731.66;;;23.63;27.20
41254;BME280;26987;59.928;30.306;2023-06-10T05:27:15;102729.47;;;24.34;25.75
41254;BME280;26987;59.928;30.306;2023-06-10T05:29:44;102726.66;;;23.94;26.42
41254;BME280;26987;59.928;30.306;2023-06-10T05:32:12;102739.59;;;23.06;27.29
41254;BME280;26987;59.928;30.306;2023-06-10T05:34:40;102737.97;;;23.05;27.34
41254;BME280;26987;59.928;30.306;2023-06-10T05:37:08;102731.91;;;23.32;26.87
41254;BME280;26987;59.928;30.306;2023-06-10T05:39:36;102738.03;;;22.81;27.39
41254;BME280;26987;59.928;30.306;2023-06-10T05:42:06;102738.94;;;22.58;27.16
41254;BME280;26987;59.928;30.306;2023-06-10T05:44:37;102746.88;;;23.41;26.76
41254;BME280;26987;59.928;30.306;2023-06-10T05:47:07;102739.53;;;23.01;26.53
41254;BME280;26987;59.928;30.306;2023-06-10T05:49:34;102745.09;;;23.35;26.30
41254;BME280;26987;59.928;30.306;2023-06-10T05:52:03;102746.22;;;23.86;25.68
41254;BME280;26987;59.928;30.306;2023-06-10T05:54:31;102746.88;;;22.71;26.55
41254;BME280;26987;59.928;30.306;2023-06-10T05:56:58;102744.34;;;23.11;26.17
41254;BME280;26987;59.928;30.306;2023-06-10T05:59:26;102763.41;;;23.35;25.11
41254;BME280;26987;59.928;30.306;2023-06-10T06:01:54;102762.44;;;22.59;25.79
41254;BME280;26987;59.928;30.306;2023-06-10T06:04:23;102757.69;;;22.42;26.39
41254;BME280;26987;59.928;30.306;2023-06-10T06:06:51;102747.75;;;22.89;26.13
41254;BME280;26987;59.928;30.306;2023-06-10T06:09:19;102755.50;;;21.41;26.90
41254;BME280;26987;59.928;30.306;2023-06-10T06:11:47;102759.47;;;22.00;26.80
41254;BME280;26987;59.928;30.306;2023-06-10T06:14:14;102731.00;;;19.39;28.81
41254;BME280;26987;59.928;30.306;2023-06-10T06:16:42;102749.25;;;19.32;29.77
41254;BME280;26987;59.928;30.306;2023-06-10T06:19:10;102751.69;;;20.56;28.40
41254;BME280;26987;59.928;30.306;2023-06-10T06:21:39;102749.94;;;20.61;28.47
41254;BME280;26987;59.928;30.306;2023-06-10T06:24:07;102754.56;;;21.17;27.46
41254;BME280;26987;59.928;30.306;2023-06-10T06:26:35;102745.72;;;19.63;29.10
41254;BME280;26987;59.928;30.306;2023-06-10T06:29:03;102758.44;;;18.78;30.85
41254;BME280;26987;59.928;30.306;2023-06-10T06:31:30;102746.41;;;19.13;30.55
41254;BME280;26987;59.928;30.306;2023-06-10T06:33:58;102750.88;;;20.92;28.84
41254;BME280;26987;59.928;30.306;2023-06-10T06:36:26;102749.13;;;22.02;26.34
41254;BME280;26987;59.928;30.306;2023-06-10T06:38:58;102760.66;;;21.74;26.46
41254;BME280;26987;59.928;30.306;2023-06-10T06:41:27;102740.84;;;20.30;27.87
41254;BME280;26987;59.928;30.306;2023-06-10T06:43:55;102749.75;;;18.22;31.19
41254;BME280;26987;59.928;30.306;2023-06-10T06:46:49;102752.69;;;16.82;33.03
41254;BME280;26987;59.928;30.306;2023-06-10T06:49:16;102764.50;;;16.74;33.02
41254;BME280;26987;59.928;30.306;2023-06-10T06:51:44;102758.19;;;17.51;31.82
41254;BME280;26987;59.928;30.306;2023-06-10T06:54:13;102762.38;;;17.05;32.43
41254;BME280;26987;59.928;30.306;2023-06-10T06:56:41;102761.06;;;15.86;34.30
41254;BME280;26987;59.928;30.306;2023-06-10T06:59:09;102762.28;;;16.20;33.29
41254;BME280;26987;59.928;30.306;2023-06-10T07:01:40;102770.41;;;17.26;31.94
41254;BME280;26987;59.928;30.306;2023-06-10T07:04:08;102765.16;;;17.74;31.42
41254;BME280;26987;59.928;30.306;2023-06-10T07:06:35;102745.25;;;17.46;31.36
41254;BME280;26987;59.928;30.306;2023-06-10T07:09:04;102765.59;;;17.15;31.35
41254;BME280;26987;59.928;30.306;2023-06-10T07:11:34;102773.41;;;17.52;31.44
41254;BME280;26987;59.928;30.306;2023-06-10T07:14:02;102777.09;;;17.31;31.12
41254;BME280;26987;59.928;30.306;2023-06-10T07:16:33;102783.22;;;17.04;32.23
41254;BME280;26987;59.928;30.306;2023-06-10T07:19:01;102772.91;;;16.22;32.66
41254;BME280;26987;59.928;30.306;2023-06-10T07:21:29;102789.16;;;15.85;34.11
41254;BME280;26987;59.928;30.306;2023-06-10T07:23:58;102783.50;;;15.80;33.34
41254;BME280;26987;59.928;30.306;2023-06-10T07:26:26;102771.78;;;16.16;33.77
41254;BME280;26987;59.928;30.306;2023-06-10T07:28:56;102779.25;;;15.92;33.73
41254;BME280;26987;59.928;30.306;2023-06-10T07:31:23;102779.38;;;15.84;33.70
41254;BME280;26987;59.928;30.306;2023-06-10T07:33:52;102785.72;;;15.54;34.45
41254;BME280;26987;59.928;30.306;2023-06-10T07:36:19;102792.56;;;15.35;34.90
41254;BME280;26987;59.928;30.306;2023-06-10T07:38:47;102784.56;;;15.26;35.47
41254;BME280;26987;59.928;30.306;2023-06-10T07:41:16;102782.59;;;15.20;35.77
41254;BME280;26987;59.928;30.306;2023-06-10T07:43:44;102800.00;;;14.72;36.06
41254;BME280;26987;59.928;30.306;2023-06-10T07:46:14;102793.19;;;14.61;36.27
41254;BME280;26987;59.928;30.306;2023-06-10T07:48:42;102797.16;;;14.50;35.76
41254;BME280;26987;59.928;30.306;2023-06-10T07:51:10;102786.47;;;13.95;36.91
41254;BME280;26987;59.928;30.306;2023-06-10T07:53:37;102797.19;;;13.80;37.91
41254;BME280;26987;59.928;30.306;2023-06-10T07:56:05;102804.78;;;13.53;39.11
41254;BME280;26987;59.928;30.306;2023-06-10T07:58:33;102800.63;;;13.34;39.54
41254;BME280;26987;59.928;30.306;2023-06-10T08:01:01;102795.97;;;13.11;39.85
41254;BME280;26987;59.928;30.306;2023-06-10T08:03:30;102810.78;;;13.15;39.89
41254;BME280;26987;59.928;30.306;2023-06-10T08:05:58;102811.31;;;13.59;39.99
41254;BME280;26987;59.928;30.306;2023-06-10T08:08:26;102798.53;;;13.84;39.09
41254;BME280;26987;59.928;30.306;2023-06-10T08:10:54;102819.00;;;13.70;39.83
41254;BME280;26987;59.928;30.306;2023-06-10T08:13:21;102812.34;;;13.49;41.23
41254;BME280;26987;59.928;30.306;2023-06-10T08:15:49;102809.84;;;13.40;40.43
41254;BME280;26987;59.928;30.306;2023-06-10T08:18:19;102808.81;;;13.49;41.04
41254;BME280;26987;59.928;30.306;2023-06-10T08:20:49;102823.81;;;13.43;40.67
41254;BME280;26987;59.928;30.306;2023-06-10T08:23:17;102825.41;;;13.21;40.56
41254;BME280;26987;59.928;30.306;2023-06-10T08:25:46;102807.63;;;13.03;40.56
41254;BME280;26987;59.928;30.306;2023-06-10T08:28:13;102808.41;;;13.20;40.83
41254;BME280;26987;59.928;30.306;2023-06-10T08:30:41;102827.09;;;13.22;41.68
41254;BME280;26987;59.928;30.306;2023-06-10T08:33:09;102825.97;;;13.56;42.57
41254;BME280;26987;59.928;30.306;2023-06-10T08:35:37;102821.59;;;14.34;41.03
41254;BME280;26987;59.928;30.306;2023-06-10T08:38:06;102821.75;;;14.56;40.31
41254;BME280;26987;59.928;30.306;2023-06-10T08:40:34;102825.97;;;14.73;40.43
41254;BME280;26987;59.928;30.306;2023-06-10T08:43:06;102837.81;;;14.72;39.96
41254;BME280;26987;59.928;30.306;2023-06-10T08:45:35;102844.09;;;14.26;40.72
41254;BME280;26987;59.928;30.306;2023-06-10T08:48:04;102844.25;;;13.78;42.13
41254;BME280;26987;59.928;30.306;2023-06-10T08:50:35;102836.16;;;13.21;42.47
41254;BME280;26987;59.928;30.306;2023-06-10T08:53:06;102840.94;;;12.94;43.51
41254;BME280;26987;59.928;30.306;2023-06-10T08:55:36;102819.16;;;12.55;43.76
41254;BME280;26987;59.928;30.306;2023-06-10T08:58:05;102844.88;;;12.58;43.96
41254;BME280;26987;59.928;30.306;2023-06-10T09:00:35;102835.13;;;12.57;43.36
41254;BME280;26987;59.928;30.306;2023-06-10T09:03:04;102842.19;;;12.66;43.28
41254;BME280;26987;59.928;30.306;2023-06-10T09:05:35;102842.47;;;12.88;42.53
41254;BME280;26987;59.928;30.306;2023-06-10T09:08:04;102833.41;;;12.89;43.16
41254;BME280;26987;59.928;30.306;2023-06-10T09:10:34;102841.63;;;12.96;42.18
41254;BME280;26987;59.928;30.306;2023-06-10T09:13:02;102849.53;;;12.97;41.71
41254;BME280;26987;59.928;30.306;2023-06-10T09:15:30;102852.56;;;13.03;42.07
41254;BME280;26987;59.928;30.306;2023-06-10T09:17:59;102851.56;;;13.04;41.86
41254;BME280;26987;59.928;30.306;2023-06-10T09:20:27;102848.69;;;13.05;41.10
41254;BME280;26987;59.928;30.306;2023-06-10T09:22:54;102855.94;;;12.96;41.79
41254;BME280;26987;59.928;30.306;2023-06-10T09:25:36;102857.97;;;13.03;41.61
41254;BME280;26987;59.928;30.306;2023-06-10T09:28:04;102844.84;;;12.74;42.04
41254;BME280;26987;59.928;30.306;2023-06-10T09:30:40;102855.63;;;12.58;41.42
41254;BME280;26987;59.928;30.306;2023-06-10T09:33:11;102858.31;;;12.58;41.72
41254;BME280;26987;59.928;30.306;2023-06-10T09:35:45;102850.25;;;12.83;41.97
41254;BME280;26987;59.928;30.306;2023-06-10T09:38:14;102847.16;;;13.11;41.07
41254;BME280;26987;59.928;30.306;2023-06-10T09:40:51;102847.28;;;13.74;41.21
41254;BME280;26987;59.928;30.306;2023-06-10T09:43:20;102854.88;;;14.03;38.46
41254;BME280;26987;59.928;30.306;2023-06-10T09:45:48;102849.56;;;13.86;36.97
41254;BME280;26987;59.928;30.306;2023-06-10T09:48:16;102849.00;;;13.99;37.01
41254;BME280;26987;59.928;30.306;2023-06-10T09:50:45;102847.66;;;13.95;36.48
41254;BME280;26987;59.928;30.306;2023-06-10T09:53:13;102844.50;;;13.91;37.58
41254;BME280;26987;59.928;30.306;2023-06-10T09:55:41;102854.00;;;13.79;37.91
41254;BME280;26987;59.928;30.306;2023-06-10T09:58:11;102844.25;;;13.29;38.46
41254;BME280;26987;59.928;30.306;2023-06-10T10:00:38;102852.44;;;12.88;39.35
41254;BME280;26987;59.928;30.306;2023-06-10T10:03:06;102851.78;;;12.60;39.74
41254;BME280;26987;59.928;30.306;2023-06-10T10:05:34;102844.22;;;12.72;39.42
41254;BME280;26987;59.928;30.306;2023-06-10T10:08:02;102839.78;;;12.88;38.98
41254;BME280;26987;59.928;30.306;2023-06-10T10:10:31;102844.75;;;13.24;38.89
41254;BME280;26987;59.928;30.306;2023-06-10T10:12:59;102843.22;;;13.39;37.75
41254;BME280;26987;59.928;30.306;2023-06-10T10:15:31;102851.94;;;13.41;37.94
41254;BME280;26987;59.928;30.306;2023-06-10T10:18:06;102842.34;;;13.46;37.62
41254;BME280;26987;59.928;30.306;2023-06-10T10:20:38;102826.88;;;13.32;37.82
41254;BME280;26987;59.928;30.306;2023-06-10T10:23:12;102828.25;;;13.19;37.41
41254;BME280;26987;59.928;30.306;2023-06-10T10:25:42;102847.44;;;13.24;36.87
41254;BME280;26987;59.928;30.306;2023-06-10T10:28:11;102850.53;;;13.13;36.87
41254;BME280;26987;59.928;30.306;2023-06-10T10:30:45;102828.66;;;13.08;37.58
41254;BME280;26987;59.928;30.306;2023-06-10T10:33:18;102846.06;;;13.37;36.53
41254;BME280;26987;59.928;30.306;2023-06-10T10:35:46;102845.84;;;13.47;36.45
41254;BME280;26987;59.928;30.306;2023-06-10T10:38:15;102852.09;;;13.47;35.72
41254;BME280;26987;59.928;30.306;2023-06-10T10:40:44;102844.25;;;13.29;36.02
41254;BME280;26987;59.928;30.306;2023-06-10T10:43:13;102846.91;;;13.37;36.69
41254;BME280;26987;59.928;30.306;2023-06-10T10:45:45;102841.81;;;13.51;35.82
41254;BME280;26987;59.928;30.306;2023-06-10T10:48:14;102841.97;;;13.58;35.73
41254;BME280;26987;59.928;30.306;2023-06-10T10:50:42;102835.25;;;13.45;35.26
41254;BME280;26987;59.928;30.306;2023-06-10T10:53:10;102839.38;;;13.33;35.46
41254;BME280;26987;59.928;30.306;2023-06-10T10:55:38;102832.97;;;13.25;35.52
41254;BME280;26987;59.928;30.306;2023-06-10T10:58:07;102837.94;;;13.45;36.01
41254;BME280;26987;59.928;30.306;2023-06-10T11:00:42;102842.34;;;13.38;35.71
41254;BME280;26987;59.928;30.306;2023-06-10T11:03:14;102830.25;;;13.34;36.13
41254;BME280;26987;59.928;30.306;2023-06-10T11:05:43;102846.06;;;13.37;34.75
41254;BME280;26987;59.928;30.306;2023-06-10T11:08:14;102841.72;;;13.28;35.11
41254;BME280;26987;59.928;30.306;2023-06-10T11:10:51;102840.75;;;13.20;35.20
41254;BME280;26987;59.928;30.306;2023-06-10T11:13:20;102840.75;;;13.20;35.19
41254;BME280;26987;59.928;30.306;2023-06-10T11:15:50;102806.38;;;13.22;34.82
41254;BME280;26987;59.928;30.306;2023-06-10T11:18:23;102832.78;;;13.35;35.37
41254;BME280;26987;59.928;30.306;2023-06-10T11:20:59;102841.38;;;13.22;35.17
41254;BME280;26987;59.928;30.306;2023-06-10T11:23:43;102838.88;;;13.21;35.84
41254;BME280;26987;59.928;30.306;2023-06-10T11:26:18;102833.19;;;13.07;35.25
41254;BME280;26987;59.928;30.306;2023-06-10T11:29:17;102820.34;;;13.26;35.53
41254;BME280;26987;59.928;30.306;2023-06-10T11:31:49;102842.06;;;13.24;35.38
41254;BME280;26987;59.928;30.306;2023-06-10T11:34:25;102819.50;;;13.25;35.61
41254;BME280;26987;59.928;30.306;2023-06-10T11:36:53;102817.50;;;13.19;35.20
41254;BME280;26987;59.928;30.306;2023-06-10T11:39:21;102833.97;;;13.24;35.68
41254;BME280;26987;59.928;30.306;2023-06-10T11:41:52;102839.31;;;13.41;34.85
41254;BME280;26987;59.928;30.306;2023-06-10T11:44:20;102831.41;;;13.40;34.81
41254;BME280;26987;59.928;30.306;2023-06-10T11:46:49;102820.84;;;13.30;34.57
41254;BME280;26987;59.928;30.306;2023-06-10T11:49:17;102841.56;;;13.29;34.97
41254;BME280;26987;59.928;30.306;2023-06-10T11:51:49;102840.69;;;13.29;34.80
41254;BME280;26987;59.928;30.306;2023-06-10T11:54:18;102845.75;;;13.32;34.45
41254;BME280;26987;59.928;30.306;2023-06-10T11:56:46;102852.84;;;13.24;34.64
41254;BME280;26987;59.928;30.306;2023-06-10T11:59:15;102846.13;;;13.12;34.87
41254;BME280;26987;59.928;30.306;2023-06-10T12:01:43;102833.38;;;12.97;35.08
41254;BME280;26987;59.928;30.306;2023-06-10T12:04:12;102852.53;;;13.11;35.72
41254;BME280;26987;59.928;30.306;2023-06-10T12:06:42;102833.72;;;13.03;35.63
41254;BME280;26987;59.928;30.306;2023-06-10T12:09:19;102834.84;;;13.17;36.18
41254;BME280;26987;59.928;30.306;2023-06-10T12:11:49;102841.94;;;13.18;35.82
41254;BME280;26987;59.928;30.306;2023-06-10T12:14:51;102835.31;;;13.29;35.50
41254;BME280;26987;59.928;30.306;2023-06-10T12:17:22;102788.59;;;13.05;35.90
41254;BME280;26987;59.928;30.306;2023-06-10T12:19:50;102846.25;;;13.27;35.44
41254;BME280;26987;59.928;30.306;2023-06-10T12:22:18;102838.91;;;13.12;35.89
41254;BME280;26987;59.928;30.306;2023-06-10T12:24:59;102844.44;;;13.19;35.76
41254;BME280;26987;59.928;30.306;2023-06-10T12:27:27;102824.63;;;13.04;36.51
41254;BME280;26987;59.928;30.306;2023-06-10T12:29:56;102807.81;;;12.93;36.34
41254;BME280;26987;59.928;30.306;2023-06-10T12:32:35;102835.81;;;13.24;36.45
41254;BME280;26987;59.928;30.306;2023-06-10T12:35:04;102835.28;;;13.37;36.50
41254;BME280;26987;59.928;30.306;2023-06-10T12:37:33;102840.41;;;13.23;36.14
41254;BME280;26987;59.928;30.306;2023-06-10T12:40:03;102826.28;;;13.05;36.67
41254;BME280;26987;59.928;30.306;2023-06-10T12:42:32;102826.28;;;13.05;36.72
41254;BME280;26987;59.928;30.306;2023-06-10T12:45:01;102812.16;;;13.11;36.54
41254;BME280;26987;59.928;30.306;2023-06-10T12:47:30;102814.50;;;13.06;36.57
41254;BME280;26987;59.928;30.306;2023-06-10T12:49:59;102837.06;;;13.13;36.47
41254;BME280;26987;59.928;30.306;2023-06-10T12:52:27;102827.97;;;13.14;36.30
41254;BME280;26987;59.928;30.306;2023-06-10T12:54:55;102831.69;;;13.05;36.35